sensor_id;sensor_type;location;lat;lon;timestamp;pressure;altitude;pressure_sealevel;temperature;humidity
8573;BME280;4324;42.012;24.872;2023-10-09T00:01:26;99173.97;;;23.41;37.03
8573;BME280;4324;42.012;24.872;2023-10-09T00:03:53;99179.63;;;23.40;37.10
8573;BME280;4324;42.012;24.872;2023-10-09T00:06:22;99179.63;;;23.40;38.18
8573;BME280;4324;42.012;24.872;2023-10-09T00:09:02;99183.97;;;23.41;38.12
8573;BME280;4324;42.012;24.872;2023-10-09T00:11:53;99188.53;;;23.40;38.43
8573;BME280;4324;42.012;24.872;2023-10-09T00:14:22;99186.88;;;23.39;38.48
8573;BME280;4324;42.012;24.872;2023-10-09T00:16:50;99180.78;;;23.44;36.74
8573;BME280;4324;42.012;24.872;2023-10-09T00:19:22;99145.28;;;23.24;36.97
8573;BME280;4324;42.012;24.872;2023-10-09T00:21:57;99172.56;;;23.39;38.19
8573;BME280;4324;42.012;24.872;2023-10-09T00:24:26;99174.72;;;23.37;37.74
8573;BME280;4324;42.012;24.872;2023-10-09T00:26:54;99171.69;;;23.33;38.51
8573;BME280;4324;42.012;24.872;2023-10-09T00:29:27;99170.53;;;23.29;39.07
8573;BME280;4324;42.012;24.872;2023-10-09T00:32:00;99175.81;;;23.24;39.14
8573;BME280;4324;42.012;24.872;2023-10-09T00:34:38;99180.34;;;23.18;39.99
8573;BME280;4324;42.012;24.872;2023-10-09T00:37:07;99171.66;;;23.16;39.64
8573;BME280;4324;42.012;24.872;2023-10-09T00:39:39;99181.31;;;23.12;40.34
8573;BME280;4324;42.012;24.872;2023-10-09T00:42:09;99180.16;;;23.08;40.55
8573;BME280;4324;42.012;24.872;2023-10-09T00:44:40;99178.41;;;23.02;40.70
8573;BME280;4324;42.012;24.872;2023-10-09T00:47:09;99175.91;;;22.96;40.78
8573;BME280;4324;42.012;24.872;2023-10-09T00:49:54;99181.88;;;22.86;40.97
8573;BME280;4324;42.012;24.872;2023-10-09T00:52:29;99180.13;;;22.80;40.85
8573;BME280;4324;42.012;24.872;2023-10-09T00:55:07;99178.41;;;22.74;41.26
8573;BME280;4324;42.012;24.872;2023-10-09T00:57:41;99181.00;;;22.68;41.80
8573;BME280;4324;42.012;24.872;2023-10-09T01:00:14;99172.56;;;22.65;42.05
8573;BME280;4324;42.012;24.872;2023-10-09T01:02:58;99189.50;;;22.60;42.17
8573;BME280;4324;42.012;24.872;2023-10-09T01:05:45;99176.13;;;22.54;42.52
8573;BME280;4324;42.012;24.872;2023-10-09T01:08:19;99185.63;;;22.56;42.76
8573;BME280;4324;42.012;24.872;2023-10-09T01:10:54;99180.97;;;22.52;42.73
8573;BME280;4324;42.012;24.872;2023-10-09T01:13:23;99194.09;;;22.48;42.90
8573;BME280;4324;42.012;24.872;2023-10-09T01:16:05;99204.78;;;22.43;43.10
8573;BME280;4324;42.012;24.872;2023-10-09T01:18:32;99213.59;;;22.38;43.67
8573;BME280;4324;42.012;24.872;2023-10-09T01:21:03;99211.63;;;22.34;43.65
8573;BME280;4324;42.012;24.872;2023-10-09T01:23:32;99216.31;;;22.27;43.46
8573;BME280;4324;42.012;24.872;2023-10-09T01:25:58;99230.28;;;22.23;43.39
8573;BME280;4324;42.012;24.872;2023-10-09T01:28:25;99240.34;;;22.16;43.55
8573;BME280;4324;42.012;24.872;2023-10-09T01:30:54;99243.63;;;22.07;43.67
8573;BME280;4324;42.012;24.872;2023-10-09T01:33:21;99246.66;;;21.98;43.78
8573;BME280;4324;42.012;24.872;2023-10-09T01:35:49;99251.84;;;21.88;43.86
8573;BME280;4324;42.012;24.872;2023-10-09T01:38:21;99267.75;;;21.78;44.33
8573;BME280;4324;42.012;24.872;2023-10-09T01:40:58;99266.22;;;21.70;44.36
8573;BME280;4324;42.012;24.872;2023-10-09T01:43:33;99270.66;;;21.65;44.34
8573;BME280;4324;42.012;24.872;2023-10-09T01:46:00;99278.72;;;21.65;44.41
8573;BME280;4324;42.012;24.872;2023-10-09T01:48:29;99275.56;;;21.56;44.62
8573;BME280;4324;42.012;24.872;2023-10-09T01:51:03;99273.22;;;21.48;44.84
8573;BME280;4324;42.012;24.872;2023-10-09T01:53:34;99295.34;;;21.50;44.88
8573;BME280;4324;42.012;24.872;2023-10-09T01:56:12;99294.75;;;21.48;44.83
8573;BME280;4324;42.012;24.872;2023-10-09T01:58:41;99304.72;;;21.47;44.57
8573;BME280;4324;42.012;24.872;2023-10-09T02:01:12;99310.31;;;21.46;44.33
8573;BME280;4324;42.012;24.872;2023-10-09T02:03:40;99304.00;;;21.40;44.45
8573;BME280;4324;42.012;24.872;2023-10-09T02:06:09;99295.53;;;21.37;44.47
8573;BME280;4324;42.012;24.872;2023-10-09T02:08:53;99317.31;;;21.35;45.29
8573;BME280;4324;42.012;24.872;2023-10-09T02:11:23;99334.97;;;21.13;45.88
8573;BME280;4324;42.012;24.872;2023-10-09T02:14:06;99341.06;;;20.90;45.93
8573;BME280;4324;42.012;24.872;2023-10-09T02:16:45;99358.31;;;20.64;46.27
8573;BME280;4324;42.012;24.872;2023-10-09T02:19:29;99364.59;;;20.33;46.30
8573;BME280;4324;42.012;24.872;2023-10-09T02:22:00;99369.72;;;20.09;47.16
8573;BME280;4324;42.012;24.872;2023-10-09T02:24:28;99382.41;;;20.02;46.89
8573;BME280;4324;42.012;24.872;2023-10-09T02:27:16;99391.63;;;19.88;47.70
8573;BME280;4324;42.012;24.872;2023-10-09T02:30:07;99393.75;;;19.72;48.26
8573;BME280;4324;42.012;24.872;2023-10-09T02:32:45;99400.81;;;19.67;48.84
8573;BME280;4324;42.012;24.872;2023-10-09T02:35:18;99402.06;;;19.57;47.81
8573;BME280;4324;42.012;24.872;2023-10-09T02:38:02;99413.72;;;19.45;47.35
8573;BME280;4324;42.012;24.872;2023-10-09T02:40:32;99401.78;;;19.27;46.71
8573;BME280;4324;42.012;24.872;2023-10-09T02:43:07;99430.97;;;19.17;46.75
8573;BME280;4324;42.012;24.872;2023-10-09T02:45:38;99439.47;;;19.01;47.03
8573;BME280;4324;42.012;24.872;2023-10-09T02:48:16;99445.28;;;18.84;47.76
8573;BME280;4324;42.012;24.872;2023-10-09T02:50:46;99443.63;;;18.70;46.54
8573;BME280;4324;42.012;24.872;2023-10-09T02:53:16;99442.56;;;18.65;45.70
8573;BME280;4324;42.012;24.872;2023-10-09T02:55:45;99456.81;;;18.52;45.36
8573;BME280;4324;42.012;24.872;2023-10-09T02:58:30;99463.63;;;18.41;45.16
8573;BME280;4324;42.012;24.872;2023-10-09T03:01:02;99478.03;;;18.20;45.58
8573;BME280;4324;42.012;24.872;2023-10-09T03:03:29;99490.97;;;17.97;46.60
8573;BME280;4324;42.012;24.872;2023-10-09T03:06:01;99486.00;;;17.80;46.38
8573;BME280;4324;42.012;24.872;2023-10-09T03:08:36;99492.50;;;17.71;46.20
8573;BME280;4324;42.012;24.872;2023-10-09T03:11:03;99497.25;;;17.69;46.17
8573;BME280;4324;42.012;24.872;2023-10-09T03:13:32;99503.00;;;17.66;46.43
8573;BME280;4324;42.012;24.872;2023-10-09T03:15:59;99512.69;;;17.67;46.50
8573;BME280;4324;42.012;24.872;2023-10-09T03:18:27;99513.53;;;17.74;45.27
8573;BME280;4324;42.012;24.872;2023-10-09T03:20:56;99518.88;;;17.74;45.21
8573;BME280;4324;42.012;24.872;2023-10-09T03:23:24;99520.94;;;17.72;45.35
8573;BME280;4324;42.012;24.872;2023-10-09T03:25:51;99489.50;;;17.46;45.14
8573;BME280;4324;42.012;24.872;2023-10-09T03:28:18;99523.78;;;17.64;45.55
8573;BME280;4324;42.012;24.872;2023-10-09T03:30:46;99520.50;;;17.62;45.31
8573;BME280;4324;42.012;24.872;2023-10-09T03:33:13;99532.84;;;17.63;45.25
8573;BME280;4324;42.012;24.872;2023-10-09T03:35:41;99535.53;;;17.63;45.40
8573;BME280;4324;42.012;24.872;2023-10-09T03:38:08;99534.88;;;17.61;44.89
8573;BME280;4324;42.012;24.872;2023-10-09T03:40:41;99538.59;;;17.60;45.42
8573;BME280;4324;42.012;24.872;2023-10-09T03:43:09;99539.63;;;17.59;45.47
8573;BME280;4324;42.012;24.872;2023-10-09T03:45:37;99543.53;;;17.56;45.18
8573;BME280;4324;42.012;24.872;2023-10-09T03:48:12;99546.41;;;17.55;45.30
8573;BME280;4324;42.012;24.872;2023-10-09T03:50:48;99549.03;;;17.48;45.25
8573;BME280;4324;42.012;24.872;2023-10-09T03:53:25;99563.63;;;17.46;45.32
8573;BME280;4324;42.012;24.872;2023-10-09T03:55:52;99545.28;;;17.36;45.15
8573;BME280;4324;42.012;24.872;2023-10-09T03:58:18;99555.16;;;17.35;45.32
8573;BME280;4324;42.012;24.872;2023-10-09T04:00:46;99567.47;;;17.30;45.40
8573;BME280;4324;42.012;24.872;2023-10-09T04:03:16;99570.53;;;17.27;45.37
8573;BME280;4324;42.012;24.872;2023-10-09T04:05:43;99571.72;;;17.24;45.42
8573;BME280;4324;42.012;24.872;2023-10-09T04:08:10;99582.44;;;17.24;45.41
8573;BME280;4324;42.012;24.872;2023-10-09T04:10:45;99584.50;;;17.22;45.39
8573;BME280;4324;42.012;24.872;2023-10-09T04:13:18;99578.25;;;17.15;45.61
8573;BME280;4324;42.012;24.872;2023-10-09T04:15:49;99592.97;;;17.26;45.65
8573;BME280;4324;42.012;24.872;2023-10-09T04:18:20;99587.41;;;17.27;45.38
8573;BME280;4324;42.012;24.872;2023-10-09T04:20:54;99589.53;;;17.32;45.33
8573;BME280;4324;42.012;24.872;2023-10-09T04:23:39;99595.31;;;17.35;45.24
8573;BME280;4324;42.012;24.872;2023-10-09T04:26:19;99600.03;;;17.33;45.29
8573;BME280;4324;42.012;24.872;2023-10-09T04:28:46;99557.00;;;17.07;45.44
8573;BME280;4324;42.012;24.872;2023-10-09T04:31:17;99493.22;;;16.61;45.59
8573;BME280;4324;42.012;24.872;2023-10-09T04:33:47;99604.28;;;17.28;45.51
8573;BME280;4324;42.012;24.872;2023-10-09T04:36:40;99605.53;;;17.25;45.54
8573;BME280;4324;42.012;24.872;2023-10-09T04:39:14;99606.06;;;17.14;45.35
8573;BME280;4324;42.012;24.872;2023-10-09T04:42:01;99611.16;;;17.09;45.53
8573;BME280;4324;42.012;24.872;2023-10-09T04:44:45;99616.06;;;17.05;45.58
8573;BME280;4324;42.012;24.872;2023-10-09T04:47:45;99619.38;;;17.07;45.09
8573;BME280;4324;42.012;24.872;2023-10-09T04:50:25;99626.56;;;17.07;45.19
8573;BME280;4324;42.012;24.872;2023-10-09T04:53:31;99621.22;;;17.07;44.91
8573;BME280;4324;42.012;24.872;2023-10-09T04:56:04;99584.03;;;16.69;45.08
8573;BME280;4324;42.012;24.872;2023-10-09T04:58:41;99631.34;;;16.90;44.99
8573;BME280;4324;42.012;24.872;2023-10-09T05:01:09;99637.66;;;16.82;45.35
8573;BME280;4324;42.012;24.872;2023-10-09T05:03:41;99632.63;;;16.73;45.43
8573;BME280;4324;42.012;24.872;2023-10-09T05:06:12;99636.75;;;16.75;45.38
8573;BME280;4324;42.012;24.872;2023-10-09T05:09:09;99644.66;;;16.83;45.32
8573;BME280;4324;42.012;24.872;2023-10-09T05:11:38;99650.53;;;16.93;45.23
8573;BME280;4324;42.012;24.872;2023-10-09T05:14:34;99661.28;;;17.00;45.31
8573;BME280;4324;42.012;24.872;2023-10-09T05:17:11;99663.00;;;17.08;45.53
8573;BME280;4324;42.012;24.872;2023-10-09T05:19:43;99649.63;;;17.08;45.38
8573;BME280;4324;42.012;24.872;2023-10-09T05:22:22;99661.09;;;17.23;45.46
8573;BME280;4324;42.012;24.872;2023-10-09T05:25:02;99654.97;;;17.29;45.37
8573;BME280;4324;42.012;24.872;2023-10-09T05:27:41;99658.69;;;17.35;45.40
8573;BME280;4324;42.012;24.872;2023-10-09T05:30:16;99659.97;;;17.39;45.28
8573;BME280;4324;42.012;24.872;2023-10-09T05:32:56;99657.25;;;17.32;45.07
8573;BME280;4324;42.012;24.872;2023-10-09T05:35:45;99671.31;;;17.41;44.87
8573;BME280;4324;42.012;24.872;2023-10-09T05:38:32;99685.16;;;17.45;44.89
8573;BME280;4324;42.012;24.872;2023-10-09T05:41:01;99682.72;;;17.50;44.89
8573;BME280;4324;42.012;24.872;2023-10-09T05:43:50;99640.13;;;17.27;44.89
8573;BME280;4324;42.012;24.872;2023-10-09T05:46:39;99695.97;;;17.58;44.72
8573;BME280;4324;42.012;24.872;2023-10-09T05:49:26;99687.88;;;17.51;44.80
8573;BME280;4324;42.012;24.872;2023-10-09T05:52:11;99699.56;;;17.44;44.48
8573;BME280;4324;42.012;24.872;2023-10-09T05:54:53;99697.88;;;17.42;44.50
8573;BME280;4324;42.012;24.872;2023-10-09T05:57:38;99703.25;;;17.42;44.64
8573;BME280;4324;42.012;24.872;2023-10-09T06:00:26;99711.16;;;17.51;44.61
8573;BME280;4324;42.012;24.872;2023-10-09T06:03:10;99721.66;;;17.52;44.53
8573;BME280;4324;42.012;24.872;2023-10-09T06:06:12;99720.47;;;17.55;44.51
8573;BME280;4324;42.012;24.872;2023-10-09T06:08:44;99732.94;;;17.69;44.24
8573;BME280;4324;42.012;24.872;2023-10-09T06:11:31;99728.84;;;17.73;44.28
8573;BME280;4324;42.012;24.872;2023-10-09T06:14:16;99736.38;;;17.84;44.13
8573;BME280;4324;42.012;24.872;2023-10-09T06:16:51;99751.72;;;17.97;44.05
8573;BME280;4324;42.012;24.872;2023-10-09T06:19:27;99726.97;;;17.95;43.98
8573;BME280;4324;42.012;24.872;2023-10-09T06:21:54;99754.53;;;18.17;43.81
8573;BME280;4324;42.012;24.872;2023-10-09T06:25:06;99765.75;;;18.34;43.71
8573;BME280;4324;42.012;24.872;2023-10-09T06:28:40;99767.06;;;18.45;43.58
8573;BME280;4324;42.012;24.872;2023-10-09T06:35:23;99784.63;;;18.54;43.30
8573;BME280;4324;42.012;24.872;2023-10-09T06:38:09;99797.41;;;18.52;43.11
8573;BME280;4324;42.012;24.872;2023-10-09T06:40:50;99797.97;;;18.41;42.99
8573;BME280;4324;42.012;24.872;2023-10-09T06:43:36;99805.78;;;18.35;43.07
8573;BME280;4324;42.012;24.872;2023-10-09T06:46:18;99820.41;;;18.33;43.15
8573;BME280;4324;42.012;24.872;2023-10-09T06:49:03;99815.22;;;18.25;43.11
8573;BME280;4324;42.012;24.872;2023-10-09T06:51:54;99812.97;;;18.28;42.96
8573;BME280;4324;42.012;24.872;2023-10-09T06:54:39;99824.31;;;18.30;42.99
8573;BME280;4324;42.012;24.872;2023-10-09T06:57:16;99793.06;;;18.16;42.76
8573;BME280;4324;42.012;24.872;2023-10-09T07:00:04;99830.53;;;18.37;42.80
8573;BME280;4324;42.012;24.872;2023-10-09T07:03:02;99836.56;;;18.40;42.60
8573;BME280;4324;42.012;24.872;2023-10-09T07:05:37;99837.56;;;18.38;42.50
8573;BME280;4324;42.012;24.872;2023-10-09T07:08:24;99842.47;;;18.35;42.51
8573;BME280;4324;42.012;24.872;2023-10-09T07:11:03;99839.63;;;18.36;42.46
8573;BME280;4324;42.012;24.872;2023-10-09T07:13:43;99844.44;;;18.48;42.22
8573;BME280;4324;42.012;24.872;2023-10-09T07:16:21;99841.09;;;18.46;41.87
8573;BME280;4324;42.012;24.872;2023-10-09T07:18:54;99849.97;;;18.40;41.97
8573;BME280;4324;42.012;24.872;2023-10-09T07:21:35;99847.06;;;18.41;41.89
8573;BME280;4324;42.012;24.872;2023-10-09T07:24:05;99834.75;;;18.53;41.89
8573;BME280;4324;42.012;24.872;2023-10-09T07:26:40;99838.59;;;18.72;41.62
8573;BME280;4324;42.012;24.872;2023-10-09T07:29:13;99842.44;;;18.91;41.14
8573;BME280;4324;42.012;24.872;2023-10-09T07:31:48;99835.50;;;19.10;41.06
8573;BME280;4324;42.012;24.872;2023-10-09T07:34:23;99838.84;;;19.25;40.74
8573;BME280;4324;42.012;24.872;2023-10-09T07:37:19;99785.06;;;18.99;40.55
8573;BME280;4324;42.012;24.872;2023-10-09T07:39:49;99835.34;;;19.38;40.32
8573;BME280;4324;42.012;24.872;2023-10-09T07:42:23;99841.56;;;19.45;40.19
8573;BME280;4324;42.012;24.872;2023-10-09T07:45:00;99843.00;;;19.41;40.25
8573;BME280;4324;42.012;24.872;2023-10-09T07:47:39;99845.28;;;19.44;40.44
8573;BME280;4324;42.012;24.872;2023-10-09T07:50:23;99842.19;;;19.54;40.22
8573;BME280;4324;42.012;24.872;2023-10-09T07:52:56;99844.09;;;19.60;40.17
8573;BME280;4324;42.012;24.872;2023-10-09T07:55:40;99838.09;;;19.58;40.08
8573;BME280;4324;42.012;24.872;2023-10-09T07:58:14;99837.94;;;19.66;39.98
8573;BME280;4324;42.012;24.872;2023-10-09T08:00:41;99849.69;;;19.65;39.61
8573;BME280;4324;42.012;24.872;2023-10-09T08:03:24;99836.03;;;19.60;39.95
8573;BME280;4324;42.012;24.872;2023-10-09T08:05:51;99841.41;;;19.60;39.47
8573;BME280;4324;42.012;24.872;2023-10-09T08:08:32;99836.03;;;19.47;39.48
8573;BME280;4324;42.012;24.872;2023-10-09T08:11:29;99836.13;;;19.19;39.72
8573;BME280;4324;42.012;24.872;2023-10-09T08:14:14;99829.66;;;19.00;40.03
8573;BME280;4324;42.012;24.872;2023-10-09T08:17:07;99830.47;;;18.94;40.19
8573;BME280;4324;42.012;24.872;2023-10-09T08:19:38;99828.34;;;18.82;40.11
8573;BME280;4324;42.012;24.872;2023-10-09T08:22:21;99828.91;;;18.71;40.17
8573;BME280;4324;42.012;24.872;2023-10-09T08:25:11;99790.97;;;18.40;40.19
8573;BME280;4324;42.012;24.872;2023-10-09T08:27:54;99828.84;;;18.65;40.20
8573;BME280;4324;42.012;24.872;2023-10-09T08:30:21;99828.25;;;18.69;40.14
8573;BME280;4324;42.012;24.872;2023-10-09T08:33:05;99815.13;;;18.81;40.27
8573;BME280;4324;42.012;24.872;2023-10-09T08:35:54;99811.06;;;18.92;40.08
8573;BME280;4324;42.012;24.872;2023-10-09T08:38:27;99809.00;;;18.94;40.07
8573;BME280;4324;42.012;24.872;2023-10-09T08:41:06;99802.75;;;18.86;40.13
8573;BME280;4324;42.012;24.872;2023-10-09T08:43:49;99812.28;;;18.89;40.24
8573;BME280;4324;42.012;24.872;2023-10-09T08:46:20;99813.75;;;18.92;40.08
8573;BME280;4324;42.012;24.872;2023-10-09T08:48:48;99810.19;;;18.84;40.12
8573;BME280;4324;42.012;24.872;2023-10-09T08:51:18;99813.47;;;18.80;40.18
8573;BME280;4324;42.012;24.872;2023-10-09T08:53:46;99808.28;;;18.72;40.50
8573;BME280;4324;42.012;24.872;2023-10-09T08:56:12;99805.13;;;18.68;40.50
8573;BME280;4324;42.012;24.872;2023-10-09T08:58:45;99801.84;;;18.66;40.74
8573;BME280;4324;42.012;24.872;2023-10-09T09:01:16;99796.03;;;18.62;40.61
8573;BME280;4324;42.012;24.872;2023-10-09T09:03:45;99812.56;;;18.66;40.75
8573;BME280;4324;42.012;24.872;2023-10-09T09:06:12;99802.63;;;18.60;40.92
8573;BME280;4324;42.012;24.872;2023-10-09T09:08:41;99799.72;;;18.55;41.20
8573;BME280;4324;42.012;24.872;2023-10-09T09:11:11;99802.19;;;18.56;41.18
8573;BME280;4324;42.012;24.872;2023-10-09T09:13:39;99796.22;;;18.61;41.24
8573;BME280;4324;42.012;24.872;2023-10-09T09:16:13;99799.31;;;18.58;41.13
8573;BME280;4324;42.012;24.872;2023-10-09T09:18:49;99787.75;;;18.57;41.40
8573;BME280;4324;42.012;24.872;2023-10-09T09:21:21;99784.47;;;18.62;41.38
8573;BME280;4324;42.012;24.872;2023-10-09T09:23:58;99784.88;;;18.59;41.54
8573;BME280;4324;42.012;24.872;2023-10-09T09:26:34;99789.44;;;18.65;41.77
8573;BME280;4324;42.012;24.872;2023-10-09T09:29:04;99750.78;;;18.53;41.42
8573;BME280;4324;42.012;24.872;2023-10-09T09:31:33;99768.06;;;18.78;41.46
8573;BME280;4324;42.012;24.872;2023-10-09T09:34:05;99766.44;;;18.84;41.58
8573;BME280;4324;42.012;24.872;2023-10-09T09:36:49;99737.50;;;18.73;41.38
8573;BME280;4324;42.012;24.872;2023-10-09T09:39:25;99751.16;;;18.84;41.29
8573;BME280;4324;42.012;24.872;2023-10-09T09:41:56;99759.91;;;19.06;41.54
8573;BME280;4324;42.012;24.872;2023-10-09T09:44:34;99757.66;;;19.10;41.36
8573;BME280;4324;42.012;24.872;2023-10-09T09:47:09;99763.84;;;19.17;41.26
8573;BME280;4324;42.012;24.872;2023-10-09T09:49:41;99761.97;;;19.11;41.49
8573;BME280;4324;42.012;24.872;2023-10-09T09:52:08;99751.63;;;19.01;41.56
8573;BME280;4324;42.012;24.872;2023-10-09T09:54:39;99743.78;;;19.00;41.65
8573;BME280;4324;42.012;24.872;2023-10-09T09:57:07;99745.06;;;19.17;41.66
8573;BME280;4324;42.012;24.872;2023-10-09T09:59:39;99748.97;;;19.28;41.43
8573;BME280;4324;42.012;24.872;2023-10-09T10:02:20;99741.34;;;19.31;41.43
8573;BME280;4324;42.012;24.872;2023-10-09T10:04:54;99719.03;;;19.31;41.56
8573;BME280;4324;42.012;24.872;2023-10-09T10:07:23;99725.47;;;19.37;41.53
8573;BME280;4324;42.012;24.872;2023-10-09T10:09:52;99734.78;;;19.47;41.34
8573;BME280;4324;42.012;24.872;2023-10-09T10:12:51;99721.34;;;19.47;41.47
8573;BME280;4324;42.012;24.872;2023-10-09T10:15:58;99709.97;;;19.52;41.36
8573;BME280;4324;42.012;24.872;2023-10-09T10:18:31;99716.16;;;19.46;41.58
8573;BME280;4324;42.012;24.872;2023-10-09T10:21:14;99711.81;;;19.45;41.26
8573;BME280;4324;42.012;24.872;2023-10-09T10:23:43;99705.84;;;19.49;41.49
8573;BME280;4324;42.012;24.872;2023-10-09T10:26:18;99655.44;;;19.25;41.53
8573;BME280;4324;42.012;24.872;2023-10-09T10:29:16;99688.25;;;19.60;41.39
8573;BME280;4324;42.012;24.872;2023-10-09T10:31:53;99671.13;;;19.68;41.20
8573;BME280;4324;42.012;24.872;2023-10-09T10:34:22;99675.88;;;19.86;41.06
8573;BME280;4324;42.012;24.872;2023-10-09T10:36:50;99661.38;;;19.80;41.04
8573;BME280;4324;42.012;24.872;2023-10-09T10:39:24;99656.22;;;19.85;41.01
8573;BME280;4324;42.012;24.872;2023-10-09T10:42:09;99658.91;;;19.92;40.96
8573;BME280;4324;42.012;24.872;2023-10-09T10:44:41;99653.72;;;19.97;40.76
8573;BME280;4324;42.012;24.872;2023-10-09T10:47:12;99641.09;;;19.97;40.59
8573;BME280;4324;42.012;24.872;2023-10-09T10:49:56;99642.47;;;20.13;40.71
8573;BME280;4324;42.012;24.872;2023-10-09T10:52:25;99635.41;;;20.25;40.60
8573;BME280;4324;42.012;24.872;2023-10-09T10:55:11;99606.25;;;20.22;40.38
8573;BME280;4324;42.012;24.872;2023-10-09T10:58:16;99637.38;;;20.50;39.96
8573;BME280;4324;42.012;24.872;2023-10-09T11:00:53;99637.00;;;20.40;40.11
8573;BME280;4324;42.012;24.872;2023-10-09T11:03:37;99628.56;;;20.29;40.14
8573;BME280;4324;42.012;24.872;2023-10-09T11:06:27;99623.38;;;20.35;40.25
8573;BME280;4324;42.012;24.872;2023-10-09T11:09:03;99620.03;;;20.39;39.73
8573;BME280;4324;42.012;24.872;2023-10-09T11:11:48;99625.63;;;20.38;39.88
8573;BME280;4324;42.012;24.872;2023-10-09T11:14:17;99582.75;;;20.11;39.73
8573;BME280;4324;42.012;24.872;2023-10-09T11:16:49;99607.22;;;20.35;39.83
8573;BME280;4324;42.012;24.872;2023-10-09T11:19:20;99591.88;;;20.42;39.75
8573;BME280;4324;42.012;24.872;2023-10-09T11:21:57;99590.19;;;20.54;39.62
8573;BME280;4324;42.012;24.872;2023-10-09T11:24:47;99593.22;;;20.64;39.38
8573;BME280;4324;42.012;24.872;2023-10-09T11:27:26;99584.25;;;20.77;39.42
8573;BME280;4324;42.012;24.872;2023-10-09T11:29:59;99583.31;;;20.90;39.24
8573;BME280;4324;42.012;24.872;2023-10-09T11:32:46;99579.13;;;20.94;38.91
8573;BME280;4324;42.012;24.872;2023-10-09T11:35:16;99566.56;;;20.88;38.79
8573;BME280;4324;42.012;24.872;2023-10-09T11:37:55;99566.38;;;20.83;38.53
8573;BME280;4324;42.012;24.872;2023-10-09T11:40:29;99563.13;;;20.81;38.76
8573;BME280;4324;42.012;24.872;2023-10-09T11:43:00;99558.94;;;20.85;38.22
8573;BME280;4324;42.012;24.872;2023-10-09T11:45:30;99530.56;;;20.57;38.22
8573;BME280;4324;42.012;24.872;2023-10-09T11:48:17;99552.00;;;20.70;38.03
8573;BME280;4324;42.012;24.872;2023-10-09T11:50:48;99528.38;;;20.72;38.04
8573;BME280;4324;42.012;24.872;2023-10-09T11:53:19;99532.03;;;20.85;38.07
8573;BME280;4324;42.012;24.872;2023-10-09T11:55:59;99536.06;;;20.94;37.72
8573;BME280;4324;42.012;24.872;2023-10-09T11:58:26;99523.22;;;20.96;37.82
8573;BME280;4324;42.012;24.872;2023-10-09T12:00:56;99492.22;;;20.87;37.55
8573;BME280;4324;42.012;24.872;2023-10-09T12:03:27;99515.63;;;21.11;37.39
8573;BME280;4324;42.012;24.872;2023-10-09T12:05:56;99515.19;;;21.14;37.40
8573;BME280;4324;42.012;24.872;2023-10-09T12:08:23;99506.88;;;21.16;37.21
8573;BME280;4324;42.012;24.872;2023-10-09T12:10:53;99506.38;;;21.25;36.94
8573;BME280;4324;42.012;24.872;2023-10-09T12:13:22;99503.63;;;21.32;37.05
8573;BME280;4324;42.012;24.872;2023-10-09T12:15:49;99501.91;;;21.38;36.94
8573;BME280;4324;42.012;24.872;2023-10-09T12:18:21;99499.66;;;21.35;36.80
8573;BME280;4324;42.012;24.872;2023-10-09T12:20:49;99499.47;;;21.30;36.84
8573;BME280;4324;42.012;24.872;2023-10-09T12:23:28;99486.75;;;21.18;36.89
8573;BME280;4324;42.012;24.872;2023-10-09T12:25:54;99498.03;;;21.34;36.93
8573;BME280;4324;42.012;24.872;2023-10-09T12:28:22;99496.59;;;21.49;36.77
8573;BME280;4324;42.012;24.872;2023-10-09T12:30:49;99489.31;;;21.68;36.64
8573;BME280;4324;42.012;24.872;2023-10-09T12:33:17;99443.81;;;21.60;36.35
8573;BME280;4324;42.012;24.872;2023-10-09T12:35:46;99476.41;;;21.89;36.28
8573;BME280;4324;42.012;24.872;2023-10-09T12:38:13;99478.19;;;21.95;36.30
8573;BME280;4324;42.012;24.872;2023-10-09T12:40:44;99472.56;;;21.96;36.09
8573;BME280;4324;42.012;24.872;2023-10-09T12:43:16;99472.69;;;22.02;36.21
8573;BME280;4324;42.012;24.872;2023-10-09T12:45:45;99472.59;;;22.08;36.04
8573;BME280;4324;42.012;24.872;2023-10-09T12:48:12;99465.69;;;22.12;36.13
8573;BME280;4324;42.012;24.872;2023-10-09T12:50:40;99461.75;;;22.15;36.06
8573;BME280;4324;42.012;24.872;2023-10-09T12:53:11;99451.69;;;22.22;35.90
8573;BME280;4324;42.012;24.872;2023-10-09T12:55:43;99448.66;;;22.18;35.66
8573;BME280;4324;42.012;24.872;2023-10-09T12:58:11;99441.75;;;22.04;35.70
8573;BME280;4324;42.012;24.872;2023-10-09T13:00:40;99447.72;;;22.06;35.77
8573;BME280;4324;42.012;24.872;2023-10-09T13:03:14;99436.94;;;22.06;35.88
8573;BME280;4324;42.012;24.872;2023-10-09T13:05:44;99432.75;;;22.10;35.80
8573;BME280;4324;42.012;24.872;2023-10-09T13:08:19;99425.94;;;22.08;35.69
8573;BME280;4324;42.012;24.872;2023-10-09T13:10:50;99431.69;;;22.11;35.80
8573;BME280;4324;42.012;24.872;2023-10-09T13:13:25;99424.88;;;22.09;35.67
8573;BME280;4324;42.012;24.872;2023-10-09T13:16:02;99413.84;;;21.98;35.87
8573;BME280;4324;42.012;24.872;2023-10-09T13:18:31;99412.56;;;22.01;36.06
8573;BME280;4324;42.012;24.872;2023-10-09T13:20:58;99413.16;;;22.03;35.94
8573;BME280;4324;42.012;24.872;2023-10-09T13:23:30;99407.88;;;22.08;36.07
8573;BME280;4324;42.012;24.872;2023-10-09T13:26:05;99396.66;;;22.11;36.01
8573;BME280;4324;42.012;24.872;2023-10-09T13:28:45;99387.59;;;22.06;36.01
8573;BME280;4324;42.012;24.872;2023-10-09T13:31:12;99385.84;;;22.11;36.12
8573;BME280;4324;42.012;24.872;2023-10-09T13:33:40;99378.97;;;22.15;35.99
8573;BME280;4324;42.012;24.872;2023-10-09T13:36:08;99377.69;;;22.18;36.03
8573;BME280;4324;42.012;24.872;2023-10-09T13:38:45;99368.28;;;22.20;35.96
8573;BME280;4324;42.012;24.872;2023-10-09T13:41:12;99370.31;;;22.25;35.94
8573;BME280;4324;42.012;24.872;2023-10-09T13:43:40;99364.56;;;22.21;35.94
8573;BME280;4324;42.012;24.872;2023-10-09T13:46:09;99375.56;;;22.32;35.90
8573;BME280;4324;42.012;24.872;2023-10-09T13:48:37;99376.19;;;22.34;35.86
8573;BME280;4324;42.012;24.872;2023-10-09T13:51:07;99372.88;;;22.32;35.85
8573;BME280;4324;42.012;24.872;2023-10-09T13:53:40;99367.72;;;22.30;35.72
8573;BME280;4324;42.012;24.872;2023-10-09T13:56:12;99354.94;;;22.26;36.09
8573;BME280;4324;42.012;24.872;2023-10-09T13:58:47;99327.81;;;22.09;35.98